sensor_id;sensor_type;location;lat;lon;timestamp;temperature;humidity
20526;DHT22;10421;49.142;9.232;2023-04-15T00:00:38;11.90;80.50
20526;DHT22;10421;49.142;9.232;2023-04-15T00:03:05;11.80;80.50
20526;DHT22;10421;49.142;9.232;2023-04-15T00:05:32;11.80;80.80
20526;DHT22;10421;49.142;9.232;2023-04-15T00:08:00;11.70;80.90
20526;DHT22;10421;49.142;9.232;2023-04-15T00:10:27;11.70;81.10
20526;DHT22;10421;49.142;9.232;2023-04-15T00:12:54;11.70;81.40
20526;DHT22;10421;49.142;9.232;2023-04-15T00:15:21;11.60;81.50
20526;DHT22;10421;49.142;9.232;2023-04-15T00:17:49;11.60;81.70
20526;DHT22;10421;49.142;9.232;2023-04-15T00:20:17;11.60;81.80
20526;DHT22;10421;49.142;9.232;2023-04-15T00:22:43;11.50;81.90
20526;DHT22;10421;49.142;9.232;2023-04-15T00:25:12;11.50;82.10
20526;DHT22;10421;49.142;9.232;2023-04-15T00:27:39;11.50;82.20
20526;DHT22;10421;49.142;9.232;2023-04-15T00:30:07;11.50;82.40
20526;DHT22;10421;49.142;9.232;2023-04-15T00:32:34;11.50;82.50
20526;DHT22;10421;49.142;9.232;2023-04-15T00:35:00;11.50;83.40
20526;DHT22;10421;49.142;9.232;2023-04-15T00:37:27;11.50;82.80
20526;DHT22;10421;49.142;9.232;2023-04-15T00:39:54;11.40;82.80
20526;DHT22;10421;49.142;9.232;2023-04-15T00:42:23;11.40;82.90
20526;DHT22;10421;49.142;9.232;2023-04-15T00:44:51;11.40;83.20
20526;DHT22;10421;49.142;9.232;2023-04-15T00:47:18;11.30;83.20
20526;DHT22;10421;49.142;9.232;2023-04-15T00:49:45;11.30;83.50
20526;DHT22;10421;49.142;9.232;2023-04-15T00:52:12;11.20;83.60
20526;DHT22;10421;49.142;9.232;2023-04-15T00:54:39;11.20;83.80
20526;DHT22;10421;49.142;9.232;2023-04-15T00:57:06;11.20;84.00
20526;DHT22;10421;49.142;9.232;2023-04-15T00:59:34;11.10;84.00
20526;DHT22;10421;49.142;9.232;2023-04-15T01:02:01;11.10;84.30
20526;DHT22;10421;49.142;9.232;2023-04-15T01:04:28;11.10;84.40
20526;DHT22;10421;49.142;9.232;2023-04-15T01:06:55;11.10;84.60
20526;DHT22;10421;49.142;9.232;2023-04-15T01:09:22;11.00;84.60
20526;DHT22;10421;49.142;9.232;2023-04-15T01:11:49;11.00;84.70
20526;DHT22;10421;49.142;9.232;2023-04-15T01:14:16;11.00;84.80
20526;DHT22;10421;49.142;9.232;2023-04-15T01:16:44;11.00;85.00
20526;DHT22;10421;49.142;9.232;2023-04-15T01:19:13;10.90;85.00
20526;DHT22;10421;49.142;9.232;2023-04-15T01:21:42;10.90;85.10
20526;DHT22;10421;49.142;9.232;2023-04-15T01:24:09;10.90;85.30
20526;DHT22;10421;49.142;9.232;2023-04-15T01:26:38;10.90;85.40
20526;DHT22;10421;49.142;9.232;2023-04-15T01:29:04;10.90;85.40
20526;DHT22;10421;49.142;9.232;2023-04-15T01:31:33;10.80;85.40
20526;DHT22;10421;49.142;9.232;2023-04-15T01:34:00;10.80;85.70
20526;DHT22;10421;49.142;9.232;2023-04-15T01:36:26;10.80;85.90
20526;DHT22;10421;49.142;9.232;2023-04-15T01:38:55;10.80;85.90
20526;DHT22;10421;49.142;9.232;2023-04-15T01:41:24;10.70;86.00
20526;DHT22;10421;49.142;9.232;2023-04-15T01:43:52;10.70;86.10
20526;DHT22;10421;49.142;9.232;2023-04-15T01:46:20;10.60;86.20
20526;DHT22;10421;49.142;9.232;2023-04-15T01:48:46;10.60;86.30
20526;DHT22;10421;49.142;9.232;2023-04-15T01:51:13;10.60;86.50
20526;DHT22;10421;49.142;9.232;2023-04-15T01:53:40;10.60;86.60
20526;DHT22;10421;49.142;9.232;2023-04-15T01:56:07;10.60;86.70
20526;DHT22;10421;49.142;9.232;2023-04-15T01:58:33;10.60;86.70
20526;DHT22;10421;49.142;9.232;2023-04-15T02:01:01;10.50;86.60
20526;DHT22;10421;49.142;9.232;2023-04-15T02:03:29;10.40;86.70
20526;DHT22;10421;49.142;9.232;2023-04-15T02:05:55;10.40;86.90
20526;DHT22;10421;49.142;9.232;2023-04-15T02:08:22;10.30;87.30
20526;DHT22;10421;49.142;9.232;2023-04-15T02:10:49;10.30;87.80
20526;DHT22;10421;49.142;9.232;2023-04-15T02:13:16;10.20;88.60
20526;DHT22;10421;49.142;9.232;2023-04-15T02:15:46;10.20;88.20
20526;DHT22;10421;49.142;9.232;2023-04-15T02:18:14;10.20;88.40
20526;DHT22;10421;49.142;9.232;2023-04-15T02:20:41;10.20;88.70
20526;DHT22;10421;49.142;9.232;2023-04-15T02:23:09;10.20;88.80
20526;DHT22;10421;49.142;9.232;2023-04-15T02:25:36;10.20;89.00
20526;DHT22;10421;49.142;9.232;2023-04-15T02:28:03;10.20;88.80
20526;DHT22;10421;49.142;9.232;2023-04-15T02:30:31;10.10;88.70
20526;DHT22;10421;49.142;9.232;2023-04-15T02:32:59;10.10;88.60
20526;DHT22;10421;49.142;9.232;2023-04-15T02:35:27;10.10;88.70
20526;DHT22;10421;49.142;9.232;2023-04-15T02:37:54;10.00;88.80
20526;DHT22;10421;49.142;9.232;2023-04-15T02:40:21;9.90;90.00
20526;DHT22;10421;49.142;9.232;2023-04-15T02:42:48;9.80;90.00
20526;DHT22;10421;49.142;9.232;2023-04-15T02:45:14;9.80;90.20
20526;DHT22;10421;49.142;9.232;2023-04-15T02:47:42;9.80;90.30
20526;DHT22;10421;49.142;9.232;2023-04-15T02:50:11;9.70;90.30
20526;DHT22;10421;49.142;9.232;2023-04-15T02:52:41;9.70;90.40
20526;DHT22;10421;49.142;9.232;2023-04-15T02:55:09;9.70;90.60
20526;DHT22;10421;49.142;9.232;2023-04-15T02:57:36;9.70;90.60
20526;DHT22;10421;49.142;9.232;2023-04-15T03:00:04;9.70;90.60
20526;DHT22;10421;49.142;9.232;2023-04-15T03:02:34;9.70;90.60
20526;DHT22;10421;49.142;9.232;2023-04-15T03:05:01;9.60;90.60
20526;DHT22;10421;49.142;9.232;2023-04-15T03:07:27;9.60;90.60
20526;DHT22;10421;49.142;9.232;2023-04-15T03:09:55;9.60;90.70
20526;DHT22;10421;49.142;9.232;2023-04-15T03:12:22;9.60;90.70
20526;DHT22;10421;49.142;9.232;2023-04-15T03:14:49;9.60;90.80
20526;DHT22;10421;49.142;9.232;2023-04-15T03:17:15;9.60;90.70
20526;DHT22;10421;49.142;9.232;2023-04-15T03:19:42;9.60;90.80
20526;DHT22;10421;49.142;9.232;2023-04-15T03:22:09;9.50;90.80
20526;DHT22;10421;49.142;9.232;2023-04-15T03:24:36;9.50;90.90
20526;DHT22;10421;49.142;9.232;2023-04-15T03:27:04;9.50;90.90
20526;DHT22;10421;49.142;9.232;2023-04-15T03:29:32;9.40;90.90
20526;DHT22;10421;49.142;9.232;2023-04-15T03:31:59;9.50;91.00
20526;DHT22;10421;49.142;9.232;2023-04-15T03:34:26;9.50;91.10
20526;DHT22;10421;49.142;9.232;2023-04-15T03:36:52;9.50;91.10
20526;DHT22;10421;49.142;9.232;2023-04-15T03:39:19;9.50;91.20
20526;DHT22;10421;49.142;9.232;2023-04-15T03:41:46;9.50;91.10
20526;DHT22;10421;49.142;9.232;2023-04-15T03:44:14;9.50;91.10
20526;DHT22;10421;49.142;9.232;2023-04-15T03:46:41;9.50;91.60
20526;DHT22;10421;49.142;9.232;2023-04-15T03:49:07;9.50;91.30
20526;DHT22;10421;49.142;9.232;2023-04-15T03:51:34;9.40;91.30
20526;DHT22;10421;49.142;9.232;2023-04-15T03:54:01;9.40;91.40
20526;DHT22;10421;49.142;9.232;2023-04-15T03:56:28;9.40;91.40
20526;DHT22;10421;49.142;9.232;2023-04-15T03:58:55;9.40;91.50
20526;DHT22;10421;49.142;9.232;2023-04-15T04:01:23;9.40;91.60
20526;DHT22;10421;49.142;9.232;2023-04-15T04:03:49;9.40;91.70
20526;DHT22;10421;49.142;9.232;2023-04-15T04:06:16;9.40;91.70
20526;DHT22;10421;49.142;9.232;2023-04-15T04:08:43;9.40;91.70
20526;DHT22;10421;49.142;9.232;2023-04-15T04:11:10;9.40;91.70
20526;DHT22;10421;49.142;9.232;2023-04-15T04:13:37;9.40;91.80
20526;DHT22;10421;49.142;9.232;2023-04-15T04:16:04;9.40;91.80
20526;DHT22;10421;49.142;9.232;2023-04-15T04:18:32;9.40;91.80
20526;DHT22;10421;49.142;9.232;2023-04-15T04:20:59;9.40;91.90
20526;DHT22;10421;49.142;9.232;2023-04-15T04:23:26;9.40;91.90
20526;DHT22;10421;49.142;9.232;2023-04-15T04:25:53;9.40;91.80
20526;DHT22;10421;49.142;9.232;2023-04-15T04:28:20;9.40;91.80
20526;DHT22;10421;49.142;9.232;2023-04-15T04:30:46;9.40;91.90
20526;DHT22;10421;49.142;9.232;2023-04-15T04:33:13;9.40;91.90
20526;DHT22;10421;49.142;9.232;2023-04-15T04:35:41;9.40;91.90
20526;DHT22;10421;49.142;9.232;2023-04-15T04:38:08;9.40;91.90
20526;DHT22;10421;49.142;9.232;2023-04-15T04:40:35;9.30;91.90
20526;DHT22;10421;49.142;9.232;2023-04-15T04:43:02;9.30;92.00
20526;DHT22;10421;49.142;9.232;2023-04-15T04:45:28;9.30;92.00
20526;DHT22;10421;49.142;9.232;2023-04-15T04:47:55;9.30;92.10
20526;DHT22;10421;49.142;9.232;2023-04-15T04:50:22;9.30;92.50
20526;DHT22;10421;49.142;9.232;2023-04-15T04:52:50;9.30;92.30
20526;DHT22;10421;49.142;9.232;2023-04-15T04:55:16;9.30;92.30
20526;DHT22;10421;49.142;9.232;2023-04-15T04:57:43;9.30;92.30
20526;DHT22;10421;49.142;9.232;2023-04-15T05:00:11;9.30;92.40
20526;DHT22;10421;49.142;9.232;2023-04-15T05:02:38;9.30;92.40
20526;DHT22;10421;49.142;9.232;2023-04-15T05:05:07;9.30;92.30
20526;DHT22;10421;49.142;9.232;2023-04-15T05:07:34;9.30;92.30
20526;DHT22;10421;49.142;9.232;2023-04-15T05:10:02;9.30;92.30
20526;DHT22;10421;49.142;9.232;2023-04-15T05:12:29;9.30;92.30
20526;DHT22;10421;49.142;9.232;2023-04-15T05:14:56;9.30;92.30
20526;DHT22;10421;49.142;9.232;2023-04-15T05:17:23;9.20;92.10
20526;DHT22;10421;49.142;9.232;2023-04-15T05:19:50;9.20;92.20
20526;DHT22;10421;49.142;9.232;2023-04-15T05:22:18;9.20;92.20
20526;DHT22;10421;49.142;9.232;2023-04-15T05:24:44;9.10;92.30
20526;DHT22;10421;49.142;9.232;2023-04-15T05:27:13;9.10;92.30
20526;DHT22;10421;49.142;9.232;2023-04-15T05:29:40;9.10;92.40
20526;DHT22;10421;49.142;9.232;2023-04-15T05:32:07;9.10;92.40
20526;DHT22;10421;49.142;9.232;2023-04-15T05:34:33;9.10;92.50
20526;DHT22;10421;49.142;9.232;2023-04-15T05:37:00;9.10;92.60
20526;DHT22;10421;49.142;9.232;2023-04-15T05:39:27;9.00;92.60
20526;DHT22;10421;49.142;9.232;2023-04-15T05:41:54;9.10;92.70
20526;DHT22;10421;49.142;9.232;2023-04-15T05:44:23;9.00;92.70
20526;DHT22;10421;49.142;9.232;2023-04-15T05:46:50;9.10;92.70
20526;DHT22;10421;49.142;9.232;2023-04-15T05:49:17;9.10;92.70
20526;DHT22;10421;49.142;9.232;2023-04-15T05:51:43;9.10;92.80
20526;DHT22;10421;49.142;9.232;2023-04-15T05:54:10;9.10;92.80
20526;DHT22;10421;49.142;9.232;2023-04-15T05:56:37;9.10;92.80
20526;DHT22;10421;49.142;9.232;2023-04-15T05:59:04;9.20;92.90
20526;DHT22;10421;49.142;9.232;2023-04-15T06:01:32;9.20;92.90
20526;DHT22;10421;49.142;9.232;2023-04-15T06:03:59;9.30;92.90
20526;DHT22;10421;49.142;9.232;2023-04-15T06:06:26;9.20;92.90
20526;DHT22;10421;49.142;9.232;2023-04-15T06:08:53;9.30;93.00
20526;DHT22;10421;49.142;9.232;2023-04-15T06:11:20;9.30;93.00
20526;DHT22;10421;49.142;9.232;2023-04-15T06:13:47;9.30;93.10
20526;DHT22;10421;49.142;9.232;2023-04-15T06:16:14;9.40;93.10
20526;DHT22;10421;49.142;9.232;2023-04-15T06:18:42;9.50;93.20
20526;DHT22;10421;49.142;9.232;2023-04-15T06:21:09;9.50;93.20
20526;DHT22;10421;49.142;9.232;2023-04-15T06:23:36;9.60;93.20
20526;DHT22;10421;49.142;9.232;2023-04-15T06:26:02;9.60;93.10
20526;DHT22;10421;49.142;9.232;2023-04-15T06:28:29;9.70;93.10
20526;DHT22;10421;49.142;9.232;2023-04-15T06:30:56;9.80;93.10
20526;DHT22;10421;49.142;9.232;2023-04-15T06:33:22;9.80;93.10
20526;DHT22;10421;49.142;9.232;2023-04-15T06:35:51;9.90;93.00
20526;DHT22;10421;49.142;9.232;2023-04-15T06:38:18;10.00;92.40
20526;DHT22;10421;49.142;9.232;2023-04-15T06:40:45;10.00;92.40
20526;DHT22;10421;49.142;9.232;2023-04-15T06:43:11;10.00;92.40
20526;DHT22;10421;49.142;9.232;2023-04-15T06:45:38;10.10;92.40
20526;DHT22;10421;49.142;9.232;2023-04-15T06:48:05;10.20;92.40
20526;DHT22;10421;49.142;9.232;2023-04-15T06:50:32;10.30;92.50
20526;DHT22;10421;49.142;9.232;2023-04-15T06:53:01;10.30;92.30
20526;DHT22;10421;49.142;9.232;2023-04-15T06:55:28;10.40;92.30
20526;DHT22;10421;49.142;9.232;2023-04-15T06:57:56;10.50;92.30
20526;DHT22;10421;49.142;9.232;2023-04-15T07:00:22;10.60;92.20
20526;DHT22;10421;49.142;9.232;2023-04-15T07:02:50;10.60;92.20
20526;DHT22;10421;49.142;9.232;2023-04-15T07:05:17;10.70;92.20
20526;DHT22;10421;49.142;9.232;2023-04-15T07:07:44;10.80;92.10
20526;DHT22;10421;49.142;9.232;2023-04-15T07:10:12;10.90;92.20
20526;DHT22;10421;49.142;9.232;2023-04-15T07:12:40;11.00;92.20
20526;DHT22;10421;49.142;9.232;2023-04-15T07:15:07;11.10;92.00
20526;DHT22;10421;49.142;9.232;2023-04-15T07:17:34;11.20;91.90
20526;DHT22;10421;49.142;9.232;2023-04-15T07:20:01;11.30;91.90
20526;DHT22;10421;49.142;9.232;2023-04-15T07:22:28;11.40;91.80
20526;DHT22;10421;49.142;9.232;2023-04-15T07:24:55;11.50;91.80
20526;DHT22;10421;49.142;9.232;2023-04-15T07:27:23;11.50;91.60
20526;DHT22;10421;49.142;9.232;2023-04-15T07:29:50;11.60;91.50
20526;DHT22;10421;49.142;9.232;2023-04-15T07:32:17;11.70;91.40
20526;DHT22;10421;49.142;9.232;2023-04-15T07:34:44;11.80;91.30
20526;DHT22;10421;49.142;9.232;2023-04-15T07:37:11;11.80;91.10
20526;DHT22;10421;49.142;9.232;2023-04-15T07:39:38;11.80;90.90
20526;DHT22;10421;49.142;9.232;2023-04-15T07:42:04;11.80;90.90
20526;DHT22;10421;49.142;9.232;2023-04-15T07:44:33;11.80;90.70
20526;DHT22;10421;49.142;9.232;2023-04-15T07:47:01;11.90;90.70
20526;DHT22;10421;49.142;9.232;2023-04-15T07:49:28;12.00;90.70
20526;DHT22;10421;49.142;9.232;2023-04-15T07:51:55;12.10;90.50
20526;DHT22;10421;49.142;9.232;2023-04-15T07:54:24;12.10;90.50
20526;DHT22;10421;49.142;9.232;2023-04-15T07:56:51;12.20;90.40
20526;DHT22;10421;49.142;9.232;2023-04-15T07:59:18;12.30;90.40
20526;DHT22;10421;49.142;9.232;2023-04-15T08:01:47;12.50;90.40
20526;DHT22;10421;49.142;9.232;2023-04-15T08:04:14;12.60;90.40
20526;DHT22;10421;49.142;9.232;2023-04-15T08:06:41;12.50;90.30
20526;DHT22;10421;49.142;9.232;2023-04-15T08:09:08;12.60;90.40
20526;DHT22;10421;49.142;9.232;2023-04-15T08:11:35;12.80;90.40
20526;DHT22;10421;49.142;9.232;2023-04-15T08:14:02;13.00;90.20
20526;DHT22;10421;49.142;9.232;2023-04-15T08:16:29;13.20;90.00
20526;DHT22;10421;49.142;9.232;2023-04-15T08:18:57;13.40;89.60
20526;DHT22;10421;49.142;9.232;2023-04-15T08:21:24;13.60;89.20
20526;DHT22;10421;49.142;9.232;2023-04-15T08:23:52;13.70;88.70
20526;DHT22;10421;49.142;9.232;2023-04-15T08:26:20;13.80;88.60
20526;DHT22;10421;49.142;9.232;2023-04-15T08:28:47;14.00;87.70
20526;DHT22;10421;49.142;9.232;2023-04-15T08:31:15;14.10;86.50
20526;DHT22;10421;49.142;9.232;2023-04-15T08:33:43;14.20;85.80
20526;DHT22;10421;49.142;9.232;2023-04-15T08:36:11;14.40;85.00
20526;DHT22;10421;49.142;9.232;2023-04-15T08:38:39;14.40;84.20
20526;DHT22;10421;49.142;9.232;2023-04-15T08:41:10;14.50;84.00
20526;DHT22;10421;49.142;9.232;2023-04-15T08:43:45;14.60;83.90
20526;DHT22;10421;49.142;9.232;2023-04-15T08:46:13;14.60;83.50
20526;DHT22;10421;49.142;9.232;2023-04-15T08:48:41;14.60;83.20
20526;DHT22;10421;49.142;9.232;2023-04-15T08:51:08;14.60;82.50
20526;DHT22;10421;49.142;9.232;2023-04-15T08:53:36;14.70;83.00
20526;DHT22;10421;49.142;9.232;2023-04-15T08:56:04;14.80;83.90
20526;DHT22;10421;49.142;9.232;2023-04-15T08:58:33;14.90;85.10
20526;DHT22;10421;49.142;9.232;2023-04-15T09:01:01;15.00;85.10
20526;DHT22;10421;49.142;9.232;2023-04-15T09:03:28;15.20;84.40
20526;DHT22;10421;49.142;9.232;2023-04-15T09:05:56;15.30;83.60
20526;DHT22;10421;49.142;9.232;2023-04-15T09:08:23;15.40;83.00
20526;DHT22;10421;49.142;9.232;2023-04-15T09:10:51;15.60;82.30
20526;DHT22;10421;49.142;9.232;2023-04-15T09:13:19;15.70;81.80
20526;DHT22;10421;49.142;9.232;2023-04-15T09:15:46;15.80;80.90
20526;DHT22;10421;49.142;9.232;2023-04-15T09:18:26;15.90;80.10
20526;DHT22;10421;49.142;9.232;2023-04-15T09:20:53;16.10;80.10
20526;DHT22;10421;49.142;9.232;2023-04-15T09:23:20;16.20;79.70
20526;DHT22;10421;49.142;9.232;2023-04-15T09:25:47;16.30;79.10
20526;DHT22;10421;49.142;9.232;2023-04-15T09:28:23;16.40;78.50
20526;DHT22;10421;49.142;9.232;2023-04-15T09:30:54;16.60;78.00
20526;DHT22;10421;49.142;9.232;2023-04-15T09:33:21;16.60;77.20
20526;DHT22;10421;49.142;9.232;2023-04-15T09:35:56;16.60;76.90
20526;DHT22;10421;49.142;9.232;2023-04-15T09:38:23;16.70;76.90
20526;DHT22;10421;49.142;9.232;2023-04-15T09:40:50;16.80;76.90
20526;DHT22;10421;49.142;9.232;2023-04-15T09:43:18;16.90;76.40
20526;DHT22;10421;49.142;9.232;2023-04-15T09:45:51;17.00;76.50
20526;DHT22;10421;49.142;9.232;2023-04-15T09:48:19;17.20;76.50
20526;DHT22;10421;49.142;9.232;2023-04-15T09:50:47;17.40;76.10
20526;DHT22;10421;49.142;9.232;2023-04-15T09:53:18;17.50;75.40
20526;DHT22;10421;49.142;9.232;2023-04-15T09:55:48;17.60;75.00
20526;DHT22;10421;49.142;9.232;2023-04-15T09:58:20;17.80;74.10
20526;DHT22;10421;49.142;9.232;2023-04-15T10:00:49;18.00;73.40
20526;DHT22;10421;49.142;9.232;2023-04-15T10:03:18;18.20;72.90
20526;DHT22;10421;49.142;9.232;2023-04-15T10:05:47;18.40;72.30
20526;DHT22;10421;49.142;9.232;2023-04-15T10:08:15;18.70;71.40
20526;DHT22;10421;49.142;9.232;2023-04-15T10:10:43;18.90;70.00
20526;DHT22;10421;49.142;9.232;2023-04-15T10:13:12;19.10;69.10
20526;DHT22;10421;49.142;9.232;2023-04-15T10:15:43;19.30;67.00
20526;DHT22;10421;49.142;9.232;2023-04-15T10:18:12;19.60;66.60
20526;DHT22;10421;49.142;9.232;2023-04-15T10:20:41;19.70;65.90
20526;DHT22;10421;49.142;9.232;2023-04-15T10:23:08;19.80;65.70
20526;DHT22;10421;49.142;9.232;2023-04-15T10:25:35;19.80;65.20
20526;DHT22;10421;49.142;9.232;2023-04-15T10:28:03;19.80;64.30
20526;DHT22;10421;49.142;9.232;2023-04-15T10:30:31;19.80;64.30
20526;DHT22;10421;49.142;9.232;2023-04-15T10:33:00;19.80;63.70
20526;DHT22;10421;49.142;9.232;2023-04-15T10:35:28;19.70;62.80
20526;DHT22;10421;49.142;9.232;2023-04-15T10:37:55;19.70;62.10
20526;DHT22;10421;49.142;9.232;2023-04-15T10:40:26;19.60;62.10
20526;DHT22;10421;49.142;9.232;2023-04-15T10:42:54;19.60;61.90
20526;DHT22;10421;49.142;9.232;2023-04-15T10:45:21;19.60;62.10
20526;DHT22;10421;49.142;9.232;2023-04-15T10:47:53;19.50;61.30
20526;DHT22;10421;49.142;9.232;2023-04-15T10:50:22;19.40;61.10
20526;DHT22;10421;49.142;9.232;2023-04-15T10:52:51;19.30;61.00
20526;DHT22;10421;49.142;9.232;2023-04-15T10:55:20;19.20;60.80
20526;DHT22;10421;49.142;9.232;2023-04-15T10:57:51;19.10;61.30
20526;DHT22;10421;49.142;9.232;2023-04-15T11:00:19;19.00;61.60
20526;DHT22;10421;49.142;9.232;2023-04-15T11:02:50;18.80;61.80
20526;DHT22;10421;49.142;9.232;2023-04-15T11:05:19;18.70;62.30
20526;DHT22;10421;49.142;9.232;2023-04-15T11:07:49;18.50;62.60
20526;DHT22;10421;49.142;9.232;2023-04-15T11:10:49;18.40;63.40
20526;DHT22;10421;49.142;9.232;2023-04-15T11:13:21;18.30;62.60
20526;DHT22;10421;49.142;9.232;2023-04-15T11:15:49;18.20;62.20
20526;DHT22;10421;49.142;9.232;2023-04-15T11:18:17;18.10;62.00
20526;DHT22;10421;49.142;9.232;2023-04-15T11:20:46;17.90;58.10
20526;DHT22;10421;49.142;9.232;2023-04-15T11:23:17;17.60;53.40
20526;DHT22;10421;49.142;9.232;2023-04-15T11:25:44;17.50;53.60
20526;DHT22;10421;49.142;9.232;2023-04-15T11:28:12;17.40;53.60
20526;DHT22;10421;49.142;9.232;2023-04-15T11:30:39;17.40;52.70
20526;DHT22;10421;49.142;9.232;2023-04-15T11:33:10;17.20;51.50
20526;DHT22;10421;49.142;9.232;2023-04-15T11:35:40;17.10;52.00
20526;DHT22;10421;49.142;9.232;2023-04-15T11:38:08;17.00;51.20
20526;DHT22;10421;49.142;9.232;2023-04-15T11:40:37;16.90;51.40
20526;DHT22;10421;49.142;9.232;2023-04-15T11:43:06;16.90;51.90
20526;DHT22;10421;49.142;9.232;2023-04-15T11:45:33;16.90;52.40
20526;DHT22;10421;49.142;9.232;2023-04-15T11:48:05;16.80;51.50
20526;DHT22;10421;49.142;9.232;2023-04-15T11:50:32;16.80;50.90
20526;DHT22;10421;49.142;9.232;2023-04-15T11:53:00;16.70;50.20
20526;DHT22;10421;49.142;9.232;2023-04-15T11:55:28;16.70;49.70
20526;DHT22;10421;49.142;9.232;2023-04-15T11:58:12;16.60;49.50
20526;DHT22;10421;49.142;9.232;2023-04-15T12:00:41;16.60;49.40
20526;DHT22;10421;49.142;9.232;2023-04-15T12:03:14;16.50;49.80
20526;DHT22;10421;49.142;9.232;2023-04-15T12:06:05;16.50;50.00
20526;DHT22;10421;49.142;9.232;2023-04-15T12:08:58;16.40;50.30
20526;DHT22;10421;49.142;9.232;2023-04-15T12:11:30;16.40;50.80
20526;DHT22;10421;49.142;9.232;2023-04-15T12:14:03;16.40;51.20
20526;DHT22;10421;49.142;9.232;2023-04-15T12:16:31;16.30;51.40
20526;DHT22;10421;49.142;9.232;2023-04-15T12:18:59;16.30;51.40
20526;DHT22;10421;49.142;9.232;2023-04-15T12:21:32;16.40;51.50
20526;DHT22;10421;49.142;9.232;2023-04-15T12:24:02;16.20;50.50
20526;DHT22;10421;49.142;9.232;2023-04-15T12:26:32;16.20;50.00
20526;DHT22;10421;49.142;9.232;2023-04-15T12:29:01;16.20;49.90
20526;DHT22;10421;49.142;9.232;2023-04-15T12:31:29;16.20;49.80
20526;DHT22;10421;49.142;9.232;2023-04-15T12:33:56;16.10;50.20
20526;DHT22;10421;49.142;9.232;2023-04-15T12:36:23;16.20;50.60
20526;DHT22;10421;49.142;9.232;2023-04-15T12:38:50;16.20;50.90
20526;DHT22;10421;49.142;9.232;2023-04-15T12:41:17;16.20;50.80
20526;DHT22;10421;49.142;9.232;2023-04-15T12:43:44;16.20;50.50
20526;DHT22;10421;49.142;9.232;2023-04-15T12:46:12;16.20;50.50
20526;DHT22;10421;49.142;9.232;2023-04-15T12:48:40;16.10;50.60
20526;DHT22;10421;49.142;9.232;2023-04-15T12:51:06;16.00;50.80
20526;DHT22;10421;49.142;9.232;2023-04-15T12:53:33;16.00;51.00
20526;DHT22;10421;49.142;9.232;2023-04-15T12:56:00;16.00;50.60
20526;DHT22;10421;49.142;9.232;2023-04-15T12:58:26;16.00;50.60
20526;DHT22;10421;49.142;9.232;2023-04-15T13:00:53;15.80;50.00
20526;DHT22;10421;49.142;9.232;2023-04-15T13:03:22;15.80;51.30
20526;DHT22;10421;49.142;9.232;2023-04-15T13:05:49;15.80;51.40
20526;DHT22;10421;49.142;9.232;2023-04-15T13:08:17;15.80;52.60
20526;DHT22;10421;49.142;9.232;2023-04-15T13:10:44;15.70;52.90
20526;DHT22;10421;49.142;9.232;2023-04-15T13:13:11;15.80;54.10
20526;DHT22;10421;49.142;9.232;2023-04-15T13:15:37;15.90;54.40
20526;DHT22;10421;49.142;9.232;2023-04-15T13:18:05;15.90;54.60
20526;DHT22;10421;49.142;9.232;2023-04-15T13:20:34;16.00;55.20
20526;DHT22;10421;49.142;9.232;2023-04-15T13:23:01;16.00;55.40
20526;DHT22;10421;49.142;9.232;2023-04-15T13:25:27;16.00;55.50
20526;DHT22;10421;49.142;9.232;2023-04-15T13:27:54;16.00;56.00
20526;DHT22;10421;49.142;9.232;2023-04-15T13:30:22;16.00;55.90
20526;DHT22;10421;49.142;9.232;2023-04-15T13:32:48;16.00;55.90
20526;DHT22;10421;49.142;9.232;2023-04-15T13:35:15;16.10;55.50
20526;DHT22;10421;49.142;9.232;2023-04-15T13:37:43;16.10;55.50
20526;DHT22;10421;49.142;9.232;2023-04-15T13:40:10;16.00;55.40
20526;DHT22;10421;49.142;9.232;2023-04-15T13:42:37;16.00;55.60
20526;DHT22;10421;49.142;9.232;2023-04-15T13:45:05;15.90;55.60
20526;DHT22;10421;49.142;9.232;2023-04-15T13:47:31;15.80;55.70
20526;DHT22;10421;49.142;9.232;2023-04-15T13:49:58;15.80;55.80
20526;DHT22;10421;49.142;9.232;2023-04-15T13:52:25;15.80;56.00
20526;DHT22;10421;49.142;9.232;2023-04-15T13:54:53;15.70;56.10
20526;DHT22;10421;49.142;9.232;2023-04-15T13:57:20;15.70;56.30
20526;DHT22;10421;49.142;9.232;2023-04-15T13:59:47;15.70;56.50
20526;DHT22;10421;49.142;9.232;2023-04-15T14:02:13;15.70;56.60
20526;DHT22;10421;49.142;9.232;2023-04-15T14:04:41;15.80;56.70
20526;DHT22;10421;49.142;9.232;2023-04-15T14:07:07;15.80;57.00
20526;DHT22;10421;49.142;9.232;2023-04-15T14:09:34;15.80;57.80
20526;DHT22;10421;49.142;9.232;2023-04-15T14:12:03;15.90;58.30
20526;DHT22;10421;49.142;9.232;2023-04-15T14:14:30;15.90;58.30
20526;DHT22;10421;49.142;9.232;2023-04-15T14:16:57;16.00;58.40
20526;DHT22;10421;49.142;9.232;2023-04-15T14:19:24;16.00;59.20
20526;DHT22;10421;49.142;9.232;2023-04-15T14:21:51;15.90;59.50
20526;DHT22;10421;49.142;9.232;2023-04-15T14:24:17;15.90;60.90
20526;DHT22;10421;49.142;9.232;2023-04-15T14:26:44;15.90;61.20
20526;DHT22;10421;49.142;9.232;2023-04-15T14:29:12;15.90;62.10
20526;DHT22;10421;49.142;9.232;2023-04-15T14:31:39;15.90;62.00
20526;DHT22;10421;49.142;9.232;2023-04-15T14:34:05;15.80;62.80
20526;DHT22;10421;49.142;9.232;2023-04-15T14:36:32;15.80;62.50
20526;DHT22;10421;49.142;9.232;2023-04-15T14:38:59;15.70;63.20
20526;DHT22;10421;49.142;9.232;2023-04-15T14:41:26;15.60;64.50
20526;DHT22;10421;49.142;9.232;2023-04-15T14:43:52;15.70;67.00
20526;DHT22;10421;49.142;9.232;2023-04-15T14:46:20;15.60;68.80
20526;DHT22;10421;49.142;9.232;2023-04-15T14:48:48;15.50;70.20
20526;DHT22;10421;49.142;9.232;2023-04-15T14:51:15;15.50;70.80
20526;DHT22;10421;49.142;9.232;2023-04-15T14:53:42;15.40;73.60
20526;DHT22;10421;49.142;9.232;2023-04-15T14:56:09;15.30;75.70
20526;DHT22;10421;49.142;9.232;2023-04-15T14:58:36;15.20;77.40
20526;DHT22;10421;49.142;9.232;2023-04-15T15:01:03;15.10;78.60
20526;DHT22;10421;49.142;9.232;2023-04-15T15:03:31;15.00;79.90
20526;DHT22;10421;49.142;9.232;2023-04-15T15:05:58;14.90;80.30
20526;DHT22;10421;49.142;9.232;2023-04-15T15:08:25;14.90;81.10
20526;DHT22;10421;49.142;9.232;2023-04-15T15:10:52;14.80;82.30
20526;DHT22;10421;49.142;9.232;2023-04-15T15:13:19;14.70;82.90
20526;DHT22;10421;49.142;9.232;2023-04-15T15:15:46;14.80;83.10
20526;DHT22;10421;49.142;9.232;2023-04-15T15:18:14;14.80;83.10
20526;DHT22;10421;49.142;9.232;2023-04-15T15:20:44;14.80;83.80
20526;DHT22;10421;49.142;9.232;2023-04-15T15:23:11;14.80;84.20
20526;DHT22;10421;49.142;9.232;2023-04-15T15:25:37;14.80;84.80
20526;DHT22;10421;49.142;9.232;2023-04-15T15:28:05;14.80;85.50
20526;DHT22;10421;49.142;9.232;2023-04-15T15:30:32;14.70;87.20
20526;DHT22;10421;49.142;9.232;2023-04-15T15:32:58;14.50;87.10
20526;DHT22;10421;49.142;9.232;2023-04-15T15:35:25;14.50;87.90
20526;DHT22;10421;49.142;9.232;2023-04-15T15:37:53;14.40;88.90